Terminal Aerodrome Forecast
Issued by NWS Cheyenne, WY

Home | Current Version | Previous Version | Text Only | Print | Product List | Glossary On
Versions: 1 2 3 4 5 6 7 8 9 10 11 12 13 14 15 16 17 18 19 20 21 22 23 24 25 26 27 28 29 30 31 32 33 34 35
000
FTUS45 KCYS 311358 AAA
TAFCYS
TAF AMD
KCYS 311358Z 3114/0112 29010KT P6SM BKN120
     FM311600 34012KT P6SM BKN110
     FM312000 18010KT P6SM VCTS SCT080CB BKN110
     FM010100 18010KT P6SM SCT080
     FM010400 24008KT P6SM SCT080=

USA.gov is the U.S. government's official web portal to all federal, state and local government web resources and services.